Aviation Digital Data Service (ADDS)

Output produced by TAFs form (0435 UTC 29 July 2014)
found at http://aviationweather.gov/adds/tafs/
 
KLND 282324Z 2900/2924 VRB06KT P6SM VCSH SCT100 BKN150 
     FM291500 VRB05KT P6SM -SHRA SCT040 BKN060 
     FM291900 02006KT P6SM -TSRA FEW035 BKN060CB